Time;durP1;ratioP1;P1;durP2;ratioP2;P2;SDS_P1;SDS_P2;PMS_P1;PMS_P2;Temp;Humidity;BMP_temperature;BMP_pressure;BME280_temperature;BME280_humidity;BME280_pressure;Samples;Min_cycle;Max_cycle;Signal;HPM_P1;HPM_P2
2022/12/03 00:01:09;;;;;;;66.97;32.60;;;-1.10;99.90;;;;;;5212660;28;20608;-52
2022/12/03 00:03:40;;;;;;;58.77;30.47;;;-1.10;99.90;;;;;;5227244;28;20210;-52
2022/12/03 00:06:10;;;;;;;67.63;32.87;;;-1.00;99.90;;;;;;5202849;28;20190;-52
2022/12/03 00:08:41;;;;;;;61.67;31.50;;;-1.20;99.90;;;;;;5233171;28;20281;-53
2022/12/03 00:11:12;;;;;;;72.20;35.03;;;-1.20;99.90;;;;;;5238018;28;20206;-53
2022/12/03 00:13:44;;;;;;;67.27;31.67;;;-1.20;99.90;;;;;;5221083;28;20226;-52
2022/12/03 00:16:14;;;;;;;67.17;32.47;;;-1.20;99.90;;;;;;5233516;28;20701;-49
2022/12/03 00:18:45;;;;;;;75.40;32.73;;;-1.20;99.90;;;;;;5228419;28;20448;-54
2022/12/03 00:21:16;;;;;;;66.37;33.40;;;-1.20;99.90;;;;;;5209165;28;20893;-52
2022/12/03 00:23:47;;;;;;;77.60;33.80;;;-1.20;99.90;;;;;;5210335;28;20580;-53
2022/12/03 00:26:17;;;;;;;71.70;33.10;;;-1.20;99.90;;;;;;5230542;28;20250;-52
2022/12/03 00:28:48;;;;;;;67.47;31.60;;;-1.20;99.90;;;;;;5230671;28;20218;-52
2022/12/03 00:31:22;;;;;;;75.03;29.77;;;-1.20;99.90;;;;;;5220698;28;20214;-52
2022/12/03 00:33:52;;;;;;;83.93;35.53;;;-1.10;99.90;;;;;;5206261;28;20210;-53
2022/12/03 00:36:23;;;;;;;76.30;34.33;;;-1.10;99.90;;;;;;5210864;28;20429;-55
2022/12/03 00:38:54;;;;;;;79.70;34.70;;;-1.10;99.90;;;;;;5227117;28;20189;-52
2022/12/03 00:41:25;;;;;;;68.10;32.97;;;-1.20;99.90;;;;;;5211349;28;20175;-50
2022/12/03 00:43:56;;;;;;;69.07;31.87;;;-1.20;99.90;;;;;;5210028;28;20341;-53
2022/12/03 00:46:27;;;;;;;69.07;35.90;;;-1.20;99.90;;;;;;5227496;28;20183;-52
2022/12/03 00:48:58;;;;;;;79.30;33.50;;;-1.20;99.90;;;;;;5228043;28;20899;-53
2022/12/03 00:51:29;;;;;;;75.70;32.17;;;-1.20;99.90;;;;;;5228640;28;20186;-52
2022/12/03 00:53:59;;;;;;;70.40;35.07;;;-1.30;99.90;;;;;;5217501;28;20191;-52
2022/12/03 00:56:30;;;;;;;73.80;34.33;;;-1.20;99.90;;;;;;5223932;28;20175;-53
2022/12/03 00:59:01;;;;;;;74.97;32.90;;;-1.20;99.90;;;;;;5207565;28;20230;-52
2022/12/03 01:01:32;;;;;;;78.87;35.53;;;-1.20;99.90;;;;;;5229657;28;20187;-52
2022/12/03 01:04:03;;;;;;;72.10;35.47;;;-1.20;99.90;;;;;;5204690;28;20205;-50
2022/12/03 01:06:34;;;;;;;72.30;33.47;;;-1.20;99.90;;;;;;5217098;28;20226;-52
2022/12/03 01:09:04;;;;;;;71.97;35.70;;;-1.10;99.90;;;;;;5215778;28;20472;-48
2022/12/03 01:11:38;;;;;;;84.30;34.87;;;-1.20;99.90;;;;;;5205818;28;20682;-49
2022/12/03 01:14:12;;;;;;;67.30;32.20;;;-1.20;99.90;;;;;;5209439;28;20496;-53
2022/12/03 01:16:43;;;;;;;77.23;37.80;;;-1.20;99.90;;;;;;5214039;28;20430;-52
2022/12/03 01:19:15;;;;;;;72.53;35.67;;;-1.20;99.90;;;;;;5226131;28;20440;-56
2022/12/03 01:21:49;;;;;;;81.37;36.83;;;-1.20;99.90;;;;;;5224559;28;20438;-53
2022/12/03 01:24:20;;;;;;;77.93;35.80;;;-1.10;99.90;;;;;;5203593;28;20531;-49
2022/12/03 01:26:51;;;;;;;71.13;36.70;;;-1.20;99.90;;;;;;5196862;28;20430;-48
2022/12/03 01:29:23;;;;;;;78.93;35.20;;;-1.20;99.90;;;;;;5200990;28;20507;-48
2022/12/03 01:34:47;;;;;;;70.77;33.33;;;-1.20;99.90;;;;;;5211323;28;20466;-47
2022/12/03 01:37:21;;;;;;;77.30;36.07;;;-1.20;99.90;;;;;;5225528;28;20527;-49
2022/12/03 01:39:51;;;;;;;74.10;33.50;;;-1.20;99.90;;;;;;5209250;28;20455;-48
2022/12/03 01:42:32;;;;;;;83.43;36.57;;;-1.20;99.90;;;;;;5219610;28;20473;-48
2022/12/03 01:45:04;;;;;;;74.13;34.70;;;-1.20;99.90;;;;;;5228623;28;20266;-50
2022/12/03 01:47:36;;;;;;;72.30;34.23;;;-1.20;99.90;;;;;;5224494;28;21001;-48
2022/12/03 01:50:28;;;;;;;84.07;36.10;;;-1.20;99.90;;;;;;5202103;28;20463;-48
2022/12/03 01:53:01;;;;;;;68.00;33.70;;;-1.20;99.90;;;;;;5205070;28;20465;-49
2022/12/03 01:55:32;;;;;;;73.90;34.73;;;-1.20;99.90;;;;;;5212055;28;20445;-48
2022/12/03 01:58:03;;;;;;;83.50;35.33;;;-1.20;99.90;;;;;;5218868;28;20437;-48
2022/12/03 02:00:33;;;;;;;70.33;33.97;;;-1.20;99.90;;;;;;5210476;28;20445;-49
2022/12/03 02:03:14;;;;;;;80.50;34.03;;;-1.20;99.90;;;;;;5224392;28;20472;-49
2022/12/03 02:05:44;;;;;;;67.80;33.37;;;-1.10;99.90;;;;;;5232828;28;20179;-50
2022/12/03 02:08:33;;;;;;;82.00;33.77;;;-1.20;99.90;;;;;;5226540;28;20447;-51
2022/12/03 02:11:08;;;;;;;57.43;30.00;;;-1.20;99.90;;;;;;5213193;28;20182;-48
2022/12/03 02:13:39;;;;;;;66.30;33.27;;;-1.20;99.90;;;;;;5204049;28;20468;-48
2022/12/03 02:16:10;;;;;;;70.67;31.53;;;-1.30;99.90;;;;;;5226712;28;20443;-48
2022/12/03 02:18:41;;;;;;;77.63;37.10;;;-1.30;99.90;;;;;;5197656;28;20442;-48
2022/12/03 02:21:33;;;;;;;71.70;33.93;;;-1.30;99.90;;;;;;5203037;28;20556;-48
2022/12/03 02:24:25;;;;;;;78.03;34.57;;;-1.20;99.90;;;;;;5217699;28;20514;-52
2022/12/03 02:26:56;;;;;;;72.50;32.10;;;-1.20;99.90;;;;;;5227826;28;20430;-50
2022/12/03 02:29:27;;;;;;;68.63;33.50;;;-1.30;99.90;;;;;;5219632;28;20432;-50
2022/12/03 02:31:58;;;;;;;72.77;33.83;;;-1.20;99.90;;;;;;5226644;28;20678;-49
2022/12/03 02:34:41;;;;;;;66.70;30.63;;;-1.30;99.90;;;;;;5236420;28;20436;-50
2022/12/03 02:37:18;;;;;;;79.63;32.70;;;-1.20;99.90;;;;;;5225935;28;20245;-51
2022/12/03 02:39:56;;;;;;;63.27;32.60;;;-1.20;99.90;;;;;;5196762;28;20840;-50
2022/12/03 02:42:34;;;;;;;66.10;30.97;;;-1.20;99.90;;;;;;5205956;28;20453;-51
2022/12/03 02:45:21;;;;;;;66.67;30.37;;;-1.20;99.90;;;;;;5210848;28;20438;-49
2022/12/03 02:48:02;;;;;;;78.30;33.57;;;-1.20;99.90;;;;;;5207507;28;20434;-50
2022/12/03 02:50:40;;;;;;;74.10;33.40;;;-1.30;99.90;;;;;;5212150;28;20436;-50
2022/12/03 02:53:15;;;;;;;66.50;30.90;;;-1.30;99.90;;;;;;5205767;28;20472;-50
2022/12/03 02:55:47;;;;;;;65.40;32.63;;;-1.30;99.90;;;;;;5233546;28;20475;-51
2022/12/03 02:58:19;;;;;;;74.47;34.27;;;-1.20;99.90;;;;;;5204041;28;20771;-49
2022/12/03 03:00:52;;;;;;;71.60;34.40;;;-1.30;99.90;;;;;;5220010;28;21506;-50
2022/12/03 03:03:24;;;;;;;73.73;33.27;;;-1.30;99.90;;;;;;5221404;28;20464;-49
2022/12/03 03:05:56;;;;;;;66.43;32.17;;;-1.20;99.90;;;;;;5188319;28;20448;-50
2022/12/03 03:08:27;;;;;;;76.03;32.90;;;-1.20;99.90;;;;;;5219896;28;20437;-50
2022/12/03 03:10:59;;;;;;;75.47;32.57;;;-1.20;99.90;;;;;;5226649;28;20477;-51
2022/12/03 03:13:32;;;;;;;77.77;35.40;;;-1.30;99.90;;;;;;5224839;28;20937;-52
2022/12/03 03:16:04;;;;;;;74.13;32.93;;;-1.30;99.90;;;;;;5231902;28;20527;-49
2022/12/03 03:18:35;;;;;;;76.23;34.77;;;-1.30;99.90;;;;;;5226675;28;20472;-50
2022/12/03 03:21:06;;;;;;;80.13;34.40;;;-1.40;99.90;;;;;;5201473;28;20444;-49
2022/12/03 03:23:37;;;;;;;77.50;34.67;;;-1.30;99.90;;;;;;5221540;28;20473;-50
2022/12/03 03:26:11;;;;;;;77.43;34.30;;;-1.30;99.90;;;;;;5203628;28;20968;-50
2022/12/03 03:28:46;;;;;;;76.30;33.10;;;-1.30;99.90;;;;;;5224285;28;20688;-49
2022/12/03 03:31:21;;;;;;;63.63;32.50;;;-1.30;99.90;;;;;;5202271;28;20527;-50
2022/12/03 03:33:52;;;;;;;89.63;34.73;;;-1.30;99.90;;;;;;5206397;28;20477;-51
2022/12/03 03:36:23;;;;;;;77.23;34.37;;;-1.20;99.90;;;;;;5229828;28;20429;-50
2022/12/03 03:38:54;;;;;;;81.70;36.80;;;-1.20;99.90;;;;;;5223791;28;20175;-50
2022/12/03 03:41:26;;;;;;;73.70;35.37;;;-1.30;99.90;;;;;;5209471;28;20451;-50
2022/12/03 03:43:57;;;;;;;73.40;34.50;;;-1.20;99.90;;;;;;5221628;28;20453;-49
2022/12/03 03:46:28;;;;;;;74.47;34.60;;;-1.20;99.90;;;;;;5224144;28;20483;-49
2022/12/03 03:48:59;;;;;;;66.00;33.57;;;-1.30;99.90;;;;;;5224714;28;20209;-50
2022/12/03 03:51:31;;;;;;;78.23;35.40;;;-1.20;99.90;;;;;;5216183;28;20434;-49
2022/12/03 03:54:04;;;;;;;79.53;34.23;;;-1.30;99.90;;;;;;5208853;28;20458;-50
2022/12/03 03:56:35;;;;;;;76.50;35.37;;;-1.20;99.90;;;;;;5192770;28;20452;-50
2022/12/03 03:59:05;;;;;;;79.80;34.97;;;-1.30;99.90;;;;;;5225616;28;20430;-51
2022/12/03 04:01:36;;;;;;;76.73;35.20;;;-1.30;99.90;;;;;;5214159;28;20586;-49
2022/12/03 04:04:18;;;;;;;77.00;34.00;;;-1.20;99.90;;;;;;5226414;28;20547;-50
2022/12/03 04:06:48;;;;;;;83.30;36.10;;;-1.20;99.90;;;;;;5228331;28;20245;-49
2022/12/03 04:09:19;;;;;;;85.93;36.17;;;-1.30;99.90;;;;;;5204985;28;20477;-50
2022/12/03 04:14:38;;;;;;;65.10;32.07;;;-1.30;99.90;;;;;;5222265;28;20186;-49
2022/12/03 04:17:09;;;;;;;81.10;34.50;;;-1.30;99.90;;;;;;5232721;28;20782;-48
2022/12/03 04:19:39;;;;;;;87.53;35.17;;;-1.30;99.90;;;;;;5213263;28;20205;-49
2022/12/03 04:30:37;;;;;;;75.67;33.70;;;-1.30;99.90;;;;;;5232220;28;20504;-50
2022/12/03 04:35:57;;;;;;;63.93;32.70;;;-1.30;99.90;;;;;;5227396;28;20236;-51
2022/12/03 04:38:28;;;;;;;69.70;32.73;;;-1.30;99.90;;;;;;5234900;28;20447;-50
2022/12/03 04:41:02;;;;;;;66.40;32.33;;;-1.30;99.90;;;;;;5226610;28;20182;-51
2022/12/03 04:44:31;;;;;;;66.80;33.93;;;-1.20;99.90;;;;;;5204360;28;20201;-51
2022/12/03 04:46:24;;;;;;;70.77;33.50;;;-1.30;99.90;;;;;;5221893;28;20483;-50
2022/12/03 04:48:55;;;;;;;78.80;34.10;;;-1.30;99.90;;;;;;5224691;28;20461;-50
2022/12/03 04:51:25;;;;;;;81.67;36.33;;;-1.30;99.90;;;;;;5228062;28;20194;-50
2022/12/03 04:53:56;;;;;;;72.67;32.17;;;-1.30;99.90;;;;;;5229296;28;20643;-49
2022/12/03 04:56:27;;;;;;;71.40;33.47;;;-1.30;99.90;;;;;;5223543;28;20261;-50
2022/12/03 04:58:57;;;;;;;75.63;32.60;;;-1.30;99.90;;;;;;5227348;28;20210;-51
2022/12/03 05:01:28;;;;;;;77.67;32.47;;;-1.30;99.90;;;;;;5227624;28;20190;-50
2022/12/03 05:03:58;;;;;;;69.47;33.40;;;-1.30;99.90;;;;;;5217756;28;20207;-50
2022/12/03 05:06:29;;;;;;;71.83;33.60;;;-1.30;99.90;;;;;;5225697;28;20183;-49
2022/12/03 05:09:00;;;;;;;78.43;33.47;;;-1.30;99.90;;;;;;5212096;28;20179;-50
2022/12/03 05:11:31;;;;;;;70.87;34.00;;;-1.20;99.90;;;;;;5213074;28;20174;-49
2022/12/03 05:14:02;;;;;;;78.87;35.57;;;-1.30;99.90;;;;;;5233863;28;20289;-49
2022/12/03 05:16:32;;;;;;;74.60;34.60;;;-1.30;99.90;;;;;;5228114;28;21020;-50
2022/12/03 05:19:05;;;;;;;82.30;34.83;;;-1.30;99.90;;;;;;5231672;28;20528;-50
2022/12/03 05:21:35;;;;;;;71.53;36.33;;;-1.30;99.90;;;;;;5208066;28;20643;-51
2022/12/03 05:24:06;;;;;;;72.90;32.23;;;-1.30;99.90;;;;;;5225828;28;20475;-49
2022/12/03 05:26:37;;;;;;;82.20;36.47;;;-1.30;99.90;;;;;;5208120;28;20175;-49
2022/12/03 05:29:07;;;;;;;70.10;33.87;;;-1.30;99.90;;;;;;5205571;28;20202;-49
2022/12/03 05:31:38;;;;;;;73.87;33.93;;;-1.30;99.90;;;;;;5232348;28;20299;-50
2022/12/03 05:34:08;;;;;;;76.87;36.70;;;-1.30;99.90;;;;;;5232711;28;20225;-49
2022/12/03 05:36:39;;;;;;;81.13;34.60;;;-1.30;99.90;;;;;;5210064;28;20179;-50
2022/12/03 05:39:09;;;;;;;90.70;35.30;;;-1.30;99.90;;;;;;5224309;28;20183;-51
2022/12/03 05:44:29;;;;;;;91.40;39.10;;;-1.30;99.90;;;;;;5218128;28;20561;-49
2022/12/03 05:47:00;;;;;;;86.47;35.43;;;-1.30;99.90;;;;;;5228127;28;20429;-49
2022/12/03 05:49:30;;;;;;;79.80;36.53;;;-1.30;99.90;;;;;;5226809;28;20547;-49
2022/12/03 05:52:01;;;;;;;78.13;35.53;;;-1.40;99.90;;;;;;5230479;28;22111;-52
2022/12/03 05:54:31;;;;;;;92.40;36.47;;;-1.40;99.90;;;;;;5225119;28;20198;-51
2022/12/03 05:57:02;;;;;;;88.40;36.77;;;-1.50;99.90;;;;;;5208229;28;20183;-49
2022/12/03 05:59:33;;;;;;;86.17;37.30;;;-1.40;99.90;;;;;;5187701;28;20190;-49
2022/12/03 06:02:03;;;;;;;85.80;38.67;;;-1.40;99.90;;;;;;5197595;28;20305;-50
2022/12/03 06:04:35;;;;;;;90.40;36.80;;;-1.50;99.90;;;;;;5210836;28;20183;-49
2022/12/03 06:07:05;;;;;;;81.90;37.03;;;-1.50;99.90;;;;;;5211319;28;20225;-48
2022/12/03 06:09:36;;;;;;;93.43;37.33;;;-1.50;99.90;;;;;;5223785;28;20947;-50
2022/12/03 06:12:10;;;;;;;87.70;39.93;;;-1.60;99.90;;;;;;5236908;28;20213;-49
2022/12/03 06:14:40;;;;;;;83.43;41.10;;;-1.60;99.90;;;;;;5216931;28;20444;-50
2022/12/03 06:17:11;;;;;;;98.50;37.93;;;-1.60;99.90;;;;;;5217868;28;20449;-50
2022/12/03 06:19:41;;;;;;;108.13;41.63;;;-1.60;99.90;;;;;;5225822;28;20232;-50
2022/12/03 06:22:12;;;;;;;95.07;38.37;;;-1.60;99.90;;;;;;5206187;28;20387;-53
2022/12/03 06:24:43;;;;;;;102.77;39.93;;;-1.70;99.90;;;;;;5234814;28;20187;-51
2022/12/03 06:27:13;;;;;;;102.10;39.00;;;-1.70;99.90;;;;;;5224646;28;20191;-51
2022/12/03 06:29:44;;;;;;;96.07;41.70;;;-1.60;99.90;;;;;;5216503;28;20651;-51
2022/12/03 06:32:15;;;;;;;100.17;42.17;;;-1.60;99.90;;;;;;5212260;28;20558;-51
2022/12/03 06:34:45;;;;;;;90.07;38.07;;;-1.70;99.90;;;;;;5224639;28;20190;-50
2022/12/03 06:37:16;;;;;;;94.17;37.83;;;-1.60;99.90;;;;;;5226526;28;20187;-49
2022/12/03 06:39:46;;;;;;;87.53;38.17;;;-1.70;99.90;;;;;;5229487;28;20179;-50
2022/12/03 06:42:17;;;;;;;94.97;41.33;;;-1.60;99.90;;;;;;5230704;28;20294;-50
2022/12/03 06:44:48;;;;;;;91.67;39.17;;;-1.70;99.90;;;;;;5216314;28;20185;-49
2022/12/03 06:47:18;;;;;;;89.63;39.30;;;-1.50;99.90;;;;;;5222555;28;20189;-51
2022/12/03 06:49:49;;;;;;;100.03;41.20;;;-1.60;99.90;;;;;;5226108;28;20262;-50
2022/12/03 06:52:19;;;;;;;112.17;43.40;;;-1.60;99.90;;;;;;5224361;28;20210;-50
2022/12/03 06:54:50;;;;;;;101.20;42.53;;;-1.70;99.90;;;;;;5222509;28;20259;-51
2022/12/03 06:57:21;;;;;;;89.07;38.23;;;-1.70;99.90;;;;;;5208460;28;20171;-50
2022/12/03 06:59:51;;;;;;;99.50;40.27;;;-1.60;99.90;;;;;;5229619;28;20214;-49
2022/12/03 07:02:22;;;;;;;94.10;40.60;;;-1.50;99.90;;;;;;5220715;28;20632;-50
2022/12/03 07:04:52;;;;;;;87.93;40.50;;;-1.60;99.90;;;;;;5205620;28;20190;-50
2022/12/03 07:07:23;;;;;;;103.47;41.27;;;-1.60;99.90;;;;;;5218399;28;20264;-49
2022/12/03 07:09:54;;;;;;;90.27;39.73;;;-1.60;99.90;;;;;;5230247;28;20293;-52
2022/12/03 07:12:25;;;;;;;114.90;41.60;;;-1.60;99.90;;;;;;5210063;28;20272;-50
2022/12/03 07:14:56;;;;;;;100.00;41.30;;;-1.60;99.90;;;;;;5206837;28;20941;-50
2022/12/03 07:17:26;;;;;;;97.10;39.40;;;-1.70;99.90;;;;;;5205348;28;20190;-52
2022/12/03 07:19:57;;;;;;;116.07;44.33;;;-1.70;99.90;;;;;;5205900;28;20182;-49
2022/12/03 07:22:27;;;;;;;103.50;42.40;;;-1.60;99.90;;;;;;5220872;28;20205;-50
2022/12/03 07:24:58;;;;;;;95.10;41.47;;;-1.60;99.90;;;;;;5210029;28;20176;-51
2022/12/03 07:27:29;;;;;;;114.13;45.10;;;-1.50;99.90;;;;;;5203320;28;21045;-50
2022/12/03 07:29:59;;;;;;;93.13;41.97;;;-1.70;99.90;;;;;;5223189;28;20190;-49
2022/12/03 07:32:30;;;;;;;94.97;41.40;;;-1.70;99.90;;;;;;5220770;28;20300;-48
2022/12/03 07:35:01;;;;;;;86.63;39.80;;;-1.70;99.90;;;;;;5229111;28;20218;-51
2022/12/03 07:37:33;;;;;;;86.43;39.00;;;-1.60;99.90;;;;;;5228832;28;20179;-51
2022/12/03 07:40:05;;;;;;;100.53;40.17;;;-1.70;99.90;;;;;;5226182;28;20468;-51
2022/12/03 07:42:35;;;;;;;111.90;43.57;;;-1.80;99.90;;;;;;5204092;28;21116;-52
2022/12/03 07:45:07;;;;;;;100.07;42.33;;;-1.70;99.90;;;;;;5198753;28;20430;-50
2022/12/03 07:47:37;;;;;;;102.73;43.30;;;-1.80;99.90;;;;;;5226673;28;20566;-51
2022/12/03 07:50:08;;;;;;;113.77;45.07;;;-1.80;99.90;;;;;;5224740;28;20441;-50
2022/12/03 07:52:39;;;;;;;90.23;40.43;;;-1.80;99.90;;;;;;5208544;28;20313;-51
2022/12/03 07:55:11;;;;;;;102.50;41.37;;;-1.70;99.90;;;;;;5207753;28;20524;-50
2022/12/03 07:57:42;;;;;;;107.10;42.33;;;-1.80;99.90;;;;;;5226751;28;20215;-51
2022/12/03 08:00:13;;;;;;;86.33;41.67;;;-1.70;99.90;;;;;;5222989;28;20479;-50
2022/12/03 08:02:44;;;;;;;107.67;43.83;;;-1.70;99.90;;;;;;5204587;28;20212;-49
2022/12/03 08:05:15;;;;;;;102.57;43.33;;;-1.90;99.90;;;;;;5221047;28;20781;-50
2022/12/03 08:07:45;;;;;;;102.13;41.30;;;-1.70;99.90;;;;;;5224502;28;20266;-51
2022/12/03 08:10:16;;;;;;;98.00;41.77;;;-1.70;99.90;;;;;;5216094;28;20175;-50
2022/12/03 08:12:47;;;;;;;96.70;40.60;;;-1.70;99.90;;;;;;5223953;28;20216;-49
2022/12/03 08:15:20;;;;;;;86.07;40.70;;;-1.70;99.90;;;;;;5202867;28;20262;-49
2022/12/03 08:17:54;;;;;;;108.50;42.70;;;-1.70;99.90;;;;;;5223682;28;20669;-51
2022/12/03 08:20:33;;;;;;;114.87;43.20;;;-1.70;99.90;;;;;;5219489;28;20771;-51
2022/12/03 08:23:11;;;;;;;104.10;40.27;;;-1.70;99.90;;;;;;5197839;28;20516;-49
2022/12/03 08:25:43;;;;;;;108.20;42.30;;;-1.70;99.90;;;;;;5218276;28;20433;-48
2022/12/03 08:28:20;;;;;;;112.23;41.63;;;-1.70;99.90;;;;;;5205307;28;20486;-48
2022/12/03 08:31:18;;;;;;;93.07;40.00;;;-1.70;99.90;;;;;;5207441;28;20498;-49
2022/12/03 08:33:58;;;;;;;112.80;38.73;;;-1.80;99.90;;;;;;5214330;28;20537;-53
2022/12/03 08:36:31;;;;;;;98.97;41.53;;;-1.70;99.90;;;;;;5219763;28;20455;-49
2022/12/03 08:39:25;;;;;;;106.07;42.23;;;-1.70;99.90;;;;;;5223726;28;20461;-48
2022/12/03 08:45:30;;;;;;;98.53;41.50;;;-1.60;99.90;;;;;;5212560;28;20483;-49
2022/12/03 08:48:21;;;;;;;91.73;41.43;;;-1.60;99.90;;;;;;5207203;28;20934;-48
2022/12/03 08:51:00;;;;;;;99.37;40.20;;;-1.60;99.90;;;;;;5217632;28;20433;-48
2022/12/03 08:53:33;;;;;;;92.50;39.47;;;-1.60;99.90;;;;;;5208810;28;20511;-48
2022/12/03 08:56:25;;;;;;;99.87;40.57;;;-1.50;99.90;;;;;;5207468;28;20469;-49
2022/12/03 08:59:12;;;;;;;89.77;37.93;;;-1.50;99.90;;;;;;5201409;28;20437;-50
2022/12/03 09:01:44;;;;;;;100.33;40.57;;;-1.50;99.90;;;;;;5201127;28;20782;-53
2022/12/03 09:04:36;;;;;;;105.60;41.03;;;-1.50;99.90;;;;;;5220850;28;20538;-50
2022/12/03 09:07:07;;;;;;;102.57;41.40;;;-1.50;99.90;;;;;;5205312;28;20460;-48
2022/12/03 09:09:38;;;;;;;100.37;41.37;;;-1.50;99.90;;;;;;5203841;28;20430;-49
2022/12/03 09:12:08;;;;;;;102.50;41.20;;;-1.40;99.90;;;;;;5207993;28;20476;-50
2022/12/03 09:14:39;;;;;;;111.90;38.50;;;-1.40;99.90;;;;;;5199123;28;20183;-48
2022/12/03 09:17:09;;;;;;;93.43;39.00;;;-1.40;99.90;;;;;;5225525;28;20179;-50
2022/12/03 09:19:43;;;;;;;105.80;39.97;;;-1.40;99.90;;;;;;5222519;28;20197;-48
2022/12/03 09:22:16;;;;;;;104.33;42.63;;;-1.40;99.90;;;;;;5218243;28;20207;-50
2022/12/03 09:24:46;;;;;;;103.43;39.70;;;-1.40;99.90;;;;;;5221241;28;20464;-50
2022/12/03 09:27:17;;;;;;;106.23;40.27;;;-1.30;99.90;;;;;;5221361;28;20464;-49
2022/12/03 09:29:49;;;;;;;104.50;41.00;;;-1.40;99.90;;;;;;5208165;28;20650;-49
2022/12/03 09:32:19;;;;;;;106.60;42.50;;;-1.40;99.90;;;;;;5218361;28;20678;-49
2022/12/03 09:34:50;;;;;;;110.17;41.70;;;-1.30;99.90;;;;;;5223839;28;20425;-49
2022/12/03 09:37:21;;;;;;;102.23;40.50;;;-1.30;99.90;;;;;;5221736;28;20210;-50
2022/12/03 09:39:52;;;;;;;107.40;42.87;;;-1.10;99.90;;;;;;5224438;28;20262;-47
2022/12/03 09:42:23;;;;;;;109.70;44.10;;;-1.10;99.90;;;;;;5222415;28;20298;-48
2022/12/03 09:44:54;;;;;;;99.80;41.77;;;-1.00;99.90;;;;;;5219764;28;20549;-52
2022/12/03 09:47:25;;;;;;;105.13;41.33;;;-0.90;99.90;;;;;;5200495;28;20442;-50
2022/12/03 09:49:57;;;;;;;99.87;38.10;;;-0.90;99.90;;;;;;5203341;28;20941;-51
2022/12/03 09:52:30;;;;;;;107.73;41.07;;;-0.90;99.90;;;;;;5197688;28;20973;-50
2022/12/03 09:55:06;;;;;;;107.23;42.07;;;-1.00;99.90;;;;;;5225643;28;20436;-48
2022/12/03 09:57:37;;;;;;;91.33;40.60;;;-0.90;99.90;;;;;;5206217;28;20467;-49
2022/12/03 10:00:17;;;;;;;109.90;42.60;;;-1.00;99.90;;;;;;5219614;28;20441;-48
2022/12/03 10:02:49;;;;;;;106.33;39.33;;;-1.10;99.90;;;;;;5218030;28;20290;-51
2022/12/03 10:05:21;;;;;;;99.63;40.10;;;-1.10;99.90;;;;;;5185648;28;21305;-50
2022/12/03 10:07:52;;;;;;;105.43;39.80;;;-1.00;99.90;;;;;;5202653;28;20543;-50
2022/12/03 10:10:24;;;;;;;108.27;40.50;;;-1.00;99.90;;;;;;5200855;28;20921;-53
2022/12/03 10:12:54;;;;;;;90.07;38.37;;;-1.00;99.90;;;;;;5219167;28;20226;-49
2022/12/03 10:15:25;;;;;;;98.83;38.87;;;-1.00;99.90;;;;;;5221148;28;21801;-51
2022/12/03 10:17:57;;;;;;;105.37;39.23;;;-1.00;99.90;;;;;;5219661;28;20509;-50
2022/12/03 10:20:27;;;;;;;94.87;37.00;;;-1.00;99.90;;;;;;5203054;28;20214;-48
2022/12/03 10:22:58;;;;;;;94.20;41.63;;;-1.00;99.90;;;;;;5198729;28;20924;-51
2022/12/03 10:25:29;;;;;;;91.40;39.77;;;-1.20;99.90;;;;;;5216193;28;20225;-48
2022/12/03 10:28:02;;;;;;;85.03;36.23;;;-1.10;99.90;;;;;;5205956;28;20179;-48
2022/12/03 10:30:32;;;;;;;87.63;35.40;;;-1.10;99.90;;;;;;5223137;28;20650;-48
2022/12/03 10:33:12;;;;;;;107.50;38.43;;;-1.10;99.90;;;;;;5202916;28;20472;-48
2022/12/03 10:35:43;;;;;;;106.40;39.60;;;-1.10;99.90;;;;;;5218965;28;20253;-48
2022/12/03 10:38:16;;;;;;;105.50;38.97;;;-1.10;99.90;;;;;;5223496;28;20540;-50
2022/12/03 10:40:47;;;;;;;126.70;42.50;;;-1.10;99.90;;;;;;5221470;28;20284;-48
2022/12/03 10:43:18;;;;;;;88.50;36.70;;;-1.10;99.90;;;;;;5203785;28;20569;-51
2022/12/03 10:45:50;;;;;;;96.27;37.47;;;-1.20;99.90;;;;;;5220437;28;20186;-49
2022/12/03 10:48:26;;;;;;;97.97;38.07;;;-1.20;99.90;;;;;;5204121;28;20183;-49
2022/12/03 10:51:21;;;;;;;82.27;37.90;;;-1.10;99.90;;;;;;5203946;28;20562;-50
2022/12/03 10:53:53;;;;;;;91.67;34.60;;;-1.10;99.90;;;;;;5220130;28;20572;-49
2022/12/03 10:56:25;;;;;;;93.77;40.37;;;-1.10;99.90;;;;;;5223411;28;20841;-50
2022/12/03 10:58:56;;;;;;;94.83;38.47;;;-1.00;99.90;;;;;;5223050;28;20439;-52
2022/12/03 11:01:27;;;;;;;89.23;38.00;;;-1.10;99.90;;;;;;5205779;28;20438;-50
2022/12/03 11:04:03;;;;;;;94.73;39.30;;;-1.10;99.90;;;;;;5206219;28;20222;-49
2022/12/03 11:06:33;;;;;;;104.50;37.90;;;-1.10;99.90;;;;;;5206428;28;20663;-51
2022/12/03 11:09:11;;;;;;;101.07;39.23;;;-1.10;99.90;;;;;;5224108;28;20602;-50
2022/12/03 11:11:42;;;;;;;94.60;37.40;;;-1.20;99.90;;;;;;5205219;28;20254;-48
2022/12/03 11:14:12;;;;;;;98.40;36.77;;;-1.10;99.90;;;;;;5209771;28;20874;-50
2022/12/03 11:16:43;;;;;;;116.10;40.00;;;-1.10;99.90;;;;;;5202939;28;20205;-50
2022/12/03 11:19:18;;;;;;;102.47;38.03;;;-1.10;99.90;;;;;;5204734;28;20183;-48
2022/12/03 11:22:04;;;;;;;95.83;36.13;;;-1.00;99.90;;;;;;5226160;28;20185;-51
2022/12/03 11:24:36;;;;;;;104.63;35.93;;;-0.90;99.90;;;;;;5225051;28;20769;-49
2022/12/03 11:27:16;;;;;;;93.73;37.23;;;-1.00;99.90;;;;;;5209656;28;20445;-53
2022/12/03 11:29:58;;;;;;;110.13;37.87;;;-0.90;99.90;;;;;;5226982;28;20425;-48
2022/12/03 11:32:38;;;;;;;100.43;36.03;;;-1.00;99.90;;;;;;5222083;28;20527;-49
2022/12/03 11:35:26;;;;;;;88.70;35.80;;;-1.00;99.90;;;;;;5224842;28;20437;-49
2022/12/03 11:38:35;;;;;;;95.03;37.07;;;-1.00;99.90;;;;;;5224092;28;20425;-49
2022/12/03 11:41:15;;;;;;;98.73;35.00;;;-1.00;99.90;;;;;;5224595;28;20552;-51
2022/12/03 11:43:52;;;;;;;90.23;34.07;;;-0.90;99.90;;;;;;5216687;28;20478;-52
2022/12/03 11:46:45;;;;;;;96.67;35.23;;;-0.90;99.90;;;;;;5218978;28;20437;-48
2022/12/03 11:49:26;;;;;;;100.77;38.87;;;-0.90;99.90;;;;;;5210178;28;20433;-51
2022/12/03 11:51:59;;;;;;;98.80;35.40;;;-0.90;99.90;;;;;;5226123;28;20429;-50
2022/12/03 11:54:33;;;;;;;102.10;38.33;;;-0.90;99.90;;;;;;5224884;28;20477;-49
2022/12/03 11:57:25;;;;;;;99.70;37.40;;;-0.90;99.90;;;;;;5206195;28;20439;-49
2022/12/03 12:00:01;;;;;;;106.07;38.60;;;-1.00;99.90;;;;;;5224082;28;20436;-48
2022/12/03 12:02:32;;;;;;;113.70;35.30;;;-1.00;99.90;;;;;;5226439;28;20481;-51
2022/12/03 12:05:20;;;;;;;114.73;38.30;;;-0.90;99.90;;;;;;5204205;28;20451;-49
2022/12/03 12:07:52;;;;;;;110.13;37.00;;;-0.90;99.90;;;;;;5206565;28;20961;-50
2022/12/03 12:10:42;;;;;;;90.17;34.60;;;-0.90;99.90;;;;;;5223250;28;20486;-53
2022/12/03 12:13:34;;;;;;;101.93;36.50;;;-1.10;99.90;;;;;;5222349;28;20459;-49
2022/12/03 12:16:06;;;;;;;95.97;35.43;;;-1.10;99.90;;;;;;5217652;28;20429;-51
2022/12/03 12:18:50;;;;;;;95.73;35.83;;;-1.00;99.90;;;;;;5200349;28;20529;-50
2022/12/03 12:21:46;;;;;;;88.30;35.20;;;-0.90;99.90;;;;;;5223672;28;20567;-48
2022/12/03 12:24:39;;;;;;;86.00;33.90;;;-1.00;99.90;;;;;;5223982;28;20449;-50
2022/12/03 12:27:12;;;;;;;107.07;38.17;;;-0.90;99.90;;;;;;5197572;28;20440;-51
2022/12/03 12:29:46;;;;;;;107.73;36.77;;;-0.90;99.90;;;;;;5219959;28;20434;-48
2022/12/03 12:32:18;;;;;;;113.60;38.10;;;-0.90;99.90;;;;;;5223013;28;20534;-53
2022/12/03 12:34:52;;;;;;;112.23;38.33;;;-0.90;99.90;;;;;;5208013;28;20519;-49
2022/12/03 12:37:30;;;;;;;99.97;38.80;;;-0.90;99.90;;;;;;5222182;28;21000;-49
2022/12/03 12:40:12;;;;;;;95.97;35.90;;;-0.80;99.90;;;;;;5205179;28;20455;-50
2022/12/03 12:42:57;;;;;;;99.30;39.93;;;-0.90;99.90;;;;;;5225467;28;20465;-51
2022/12/03 12:45:33;;;;;;;93.90;36.43;;;-0.80;99.90;;;;;;5216812;28;20433;-49
2022/12/03 12:48:29;;;;;;;94.60;34.67;;;-0.90;99.90;;;;;;5217856;28;20437;-50
2022/12/03 12:51:10;;;;;;;108.03;37.23;;;-0.90;99.90;;;;;;5206763;28;20451;-49
2022/12/03 12:53:44;;;;;;;85.33;35.03;;;-0.90;99.90;;;;;;5219542;28;20457;-51
2022/12/03 12:56:21;;;;;;;92.63;35.30;;;-0.90;99.90;;;;;;5217592;28;20440;-51
2022/12/03 12:58:52;;;;;;;99.37;35.50;;;-0.80;99.90;;;;;;5212210;28;20422;-51
2022/12/03 13:01:29;;;;;;;91.53;35.00;;;-0.90;99.90;;;;;;5182985;28;20442;-48
2022/12/03 13:04:02;;;;;;;98.17;36.77;;;-0.90;99.90;;;;;;5221647;28;20527;-50
2022/12/03 13:06:33;;;;;;;92.40;36.60;;;-0.90;99.90;;;;;;5197428;28;20461;-49
2022/12/03 13:09:15;;;;;;;95.47;34.13;;;-1.00;99.90;;;;;;5214206;28;20960;-51
2022/12/03 13:11:52;;;;;;;111.10;36.40;;;-0.90;99.90;;;;;;5206567;28;20443;-51
2022/12/03 13:14:25;;;;;;;106.33;37.93;;;-1.00;99.90;;;;;;5200530;28;20449;-49
2022/12/03 13:16:58;;;;;;;96.73;38.13;;;-1.10;99.90;;;;;;5216985;28;20541;-49
2022/12/03 13:19:32;;;;;;;100.83;37.47;;;-1.00;99.90;;;;;;5200835;28;20975;-49